createdAt,value
2022-10-15T00:00:47.465Z,100.00
2022-10-15T00:03:16.190Z,100.00
2022-10-15T00:05:46.764Z,100.00
2022-10-15T00:08:24.161Z,100.00
2022-10-15T00:10:55.800Z,100.00
2022-10-15T00:13:24.507Z,100.00
2022-10-15T00:15:53.168Z,100.00
2022-10-15T00:18:24.685Z,100.00
2022-10-15T00:20:53.438Z,100.00
2022-10-15T00:23:22.087Z,100.00
2022-10-15T00:25:50.783Z,100.00
2022-10-15T00:28:19.428Z,100.00
2022-10-15T00:30:51.122Z,100.00
2022-10-15T00:33:19.958Z,100.00
2022-10-15T00:35:54.584Z,100.00
2022-10-15T00:38:23.175Z,100.00
2022-10-15T00:40:51.673Z,100.00
2022-10-15T00:43:38.253Z,100.00
2022-10-15T00:49:06.488Z,100.00
2022-10-15T00:51:40.892Z,100.00
2022-10-15T00:54:11.339Z,100.00
2022-10-15T00:56:44.715Z,100.00
2022-10-15T00:59:15.161Z,100.00
2022-10-15T01:01:47.164Z,100.00
2022-10-15T01:04:21.473Z,100.00
2022-10-15T01:06:50.359Z,100.00
2022-10-15T01:09:19.225Z,100.00
2022-10-15T01:11:55.112Z,100.00
2022-10-15T01:14:50.022Z,100.00
2022-10-15T01:17:39.155Z,100.00
2022-10-15T01:20:31.774Z,100.00
2022-10-15T01:23:25.213Z,100.00
2022-10-15T01:26:23.443Z,100.00
2022-10-15T01:29:14.450Z,100.00
2022-10-15T01:32:06.846Z,100.00
2022-10-15T01:34:52.553Z,100.00
2022-10-15T01:37:41.512Z,100.00
2022-10-15T01:40:15.942Z,100.00
2022-10-15T01:43:05.864Z,100.00
2022-10-15T01:45:40.586Z,100.00
2022-10-15T01:48:15.181Z,100.00
2022-10-15T01:50:49.751Z,100.00
2022-10-15T01:53:25.211Z,100.00
2022-10-15T01:56:05.298Z,100.00
2022-10-15T01:58:31.893Z,100.00
2022-10-15T02:01:05.976Z,100.00
2022-10-15T02:03:36.106Z,100.00
2022-10-15T02:06:10.409Z,100.00
2022-10-15T02:09:00.145Z,100.00
2022-10-15T02:11:32.970Z,100.00
2022-10-15T02:14:22.455Z,100.00
2022-10-15T02:17:06.297Z,100.00
2022-10-15T02:19:46.853Z,100.00
2022-10-15T02:22:27.645Z,100.00
2022-10-15T02:25:02.149Z,100.00
2022-10-15T02:27:37.373Z,100.00
2022-10-15T02:30:09.179Z,100.00
2022-10-15T02:32:49.637Z,100.00
2022-10-15T02:35:22.802Z,100.00
2022-10-15T02:38:06.450Z,100.00
2022-10-15T02:40:46.508Z,100.00
2022-10-15T02:43:28.667Z,100.00
2022-10-15T02:46:12.238Z,100.00
2022-10-15T02:48:47.530Z,100.00
2022-10-15T02:51:25.584Z,100.00
2022-10-15T02:53:57.099Z,100.00
2022-10-15T02:59:39.777Z,100.00
2022-10-15T03:02:21.260Z,100.00
2022-10-15T03:05:06.521Z,100.00
2022-10-15T03:07:46.648Z,100.00
2022-10-15T03:12:20.237Z,100.00
2022-10-15T03:12:44.915Z,100.00
2022-10-15T03:18:19.570Z,100.00
2022-10-15T03:21:00.786Z,100.00
2022-10-15T03:23:39.874Z,100.00
2022-10-15T03:26:09.054Z,100.00
2022-10-15T03:28:41.159Z,100.00
2022-10-15T03:31:21.327Z,100.00
2022-10-15T03:33:51.829Z,100.00
2022-10-15T03:36:20.825Z,100.00
2022-10-15T03:38:52.630Z,100.00
2022-10-15T03:41:21.349Z,100.00
2022-10-15T03:43:51.851Z,100.00
2022-10-15T03:46:20.661Z,100.00
2022-10-15T03:48:54.810Z,100.00
2022-10-15T03:51:25.567Z,100.00
2022-10-15T03:53:54.355Z,100.00
2022-10-15T03:56:23.184Z,100.00
2022-10-15T03:58:51.967Z,100.00
2022-10-15T04:01:20.929Z,100.00
2022-10-15T04:03:52.485Z,100.00
2022-10-15T04:06:22.592Z,100.00
2022-10-15T04:11:23.466Z,100.00
2022-10-15T04:13:58.373Z,100.00
2022-10-15T04:16:28.135Z,100.00
2022-10-15T04:18:58.409Z,100.00
2022-10-15T04:21:35.241Z,100.00
2022-10-15T04:24:07.077Z,100.00
2022-10-15T04:26:38.833Z,100.00
2022-10-15T04:29:07.839Z,100.00
2022-10-15T04:31:39.095Z,100.00
2022-10-15T04:34:08.023Z,100.00
2022-10-15T04:36:41.643Z,100.00
2022-10-15T04:39:15.008Z,100.00
2022-10-15T04:41:47.879Z,100.00
2022-10-15T04:44:16.788Z,100.00
2022-10-15T04:46:50.715Z,100.00
2022-10-15T04:49:27.204Z,100.00
2022-10-15T04:52:03.598Z,100.00
2022-10-15T04:54:38.067Z,100.00
2022-10-15T04:57:11.891Z,100.00
2022-10-15T04:59:42.434Z,100.00
2022-10-15T05:02:17.213Z,100.00
2022-10-15T05:04:58.332Z,100.00
2022-10-15T05:07:47.808Z,100.00
2022-10-15T05:10:24.961Z,100.00
2022-10-15T05:12:59.959Z,100.00
2022-10-15T05:15:30.980Z,100.00
2022-10-15T05:18:06.580Z,100.00
2022-10-15T05:20:50.334Z,100.00
2022-10-15T05:26:56.584Z,100.00
2022-10-15T05:29:25.526Z,100.00
2022-10-15T05:31:58.129Z,100.00
2022-10-15T05:34:30.897Z,100.00
2022-10-15T05:37:01.676Z,100.00
2022-10-15T05:39:33.511Z,100.00
2022-10-15T05:42:02.325Z,100.00
2022-10-15T05:44:32.235Z,100.00
2022-10-15T05:47:01.183Z,100.00
2022-10-15T05:49:32.784Z,100.00
2022-10-15T05:52:06.054Z,100.00
2022-10-15T05:54:34.834Z,100.00
2022-10-15T05:57:12.475Z,100.00
2022-10-15T05:59:44.855Z,100.00
2022-10-15T06:02:15.402Z,100.00
2022-10-15T06:04:44.699Z,100.00
2022-10-15T06:08:08.339Z,100.00
2022-10-15T06:09:53.510Z,100.00
2022-10-15T06:12:22.371Z,100.00
2022-10-15T06:15:32.058Z,100.00
2022-10-15T06:18:11.925Z,100.00
2022-10-15T06:20:43.295Z,100.00
2022-10-15T06:23:14.806Z,100.00
2022-10-15T06:25:46.199Z,100.00
2022-10-15T06:28:16.514Z,100.00
2022-10-15T06:30:46.902Z,100.00
2022-10-15T06:33:21.309Z,100.00
2022-10-15T06:35:55.748Z,100.00
2022-10-15T06:38:27.286Z,100.00
2022-10-15T06:40:56.011Z,100.00
2022-10-15T06:43:29.891Z,100.00
2022-10-15T06:46:00.840Z,100.00
2022-10-15T06:48:31.643Z,100.00
2022-10-15T06:51:01.941Z,100.00
2022-10-15T06:53:31.927Z,100.00
2022-10-15T06:56:02.097Z,100.00
2022-10-15T06:58:31.015Z,100.00
2022-10-15T07:01:04.703Z,100.00
2022-10-15T07:03:33.597Z,100.00
2022-10-15T07:06:09.748Z,100.00
2022-10-15T07:08:40.607Z,100.00
2022-10-15T07:11:12.842Z,100.00
2022-10-15T07:13:44.392Z,100.00
2022-10-15T07:16:16.368Z,100.00
2022-10-15T07:18:44.918Z,100.00
2022-10-15T07:21:15.461Z,100.00
2022-10-15T07:23:45.782Z,100.00
2022-10-15T07:26:14.429Z,100.00
2022-10-15T07:28:45.890Z,100.00
2022-10-15T07:31:14.734Z,100.00
2022-10-15T07:33:44.884Z,100.00
2022-10-15T07:36:13.643Z,100.00
2022-10-15T07:38:42.705Z,100.00
2022-10-15T07:41:12.247Z,100.00
2022-10-15T07:43:40.959Z,100.00
2022-10-15T07:46:19.153Z,100.00
2022-10-15T07:48:47.980Z,100.00
2022-10-15T07:53:47.561Z,100.00
2022-10-15T07:56:18.003Z,100.00
2022-10-15T07:58:52.924Z,100.00
2022-10-15T08:01:26.848Z,100.00
2022-10-15T08:04:02.480Z,100.00
2022-10-15T08:06:33.618Z,100.00
2022-10-15T08:09:02.445Z,100.00
2022-10-15T08:11:32.609Z,100.00
2022-10-15T08:17:10.312Z,100.00
2022-10-15T08:19:55.106Z,100.00
2022-10-15T08:22:29.632Z,100.00
2022-10-15T08:25:03.997Z,100.00
2022-10-15T08:27:45.887Z,100.00
2022-10-15T08:30:19.225Z,100.00
2022-10-15T08:33:13.967Z,100.00
2022-10-15T08:35:58.628Z,100.00
2022-10-15T08:38:27.518Z,100.00
2022-10-15T08:40:58.923Z,100.00
2022-10-15T08:43:33.123Z,100.00
2022-10-15T08:46:04.770Z,100.00
2022-10-15T08:48:39.179Z,100.00
2022-10-15T08:51:17.101Z,100.00
2022-10-15T08:53:49.664Z,100.00
2022-10-15T08:56:27.040Z,100.00
2022-10-15T08:59:07.750Z,100.00
2022-10-15T09:02:04.309Z,100.00
2022-10-15T09:05:05.484Z,100.00
2022-10-15T09:10:57.162Z,91.03
2022-10-15T09:16:23.315Z,72.11
2022-10-15T09:22:06.038Z,66.89
2022-10-15T09:24:39.626Z,66.25
2022-10-15T09:27:20.089Z,66.09
2022-10-15T09:30:09.989Z,66.31
2022-10-15T09:32:53.494Z,63.13
2022-10-15T09:35:32.163Z,62.00
2022-10-15T09:38:11.430Z,65.49
2022-10-15T09:42:11.154Z,60.89
2022-10-15T09:51:01.273Z,52.70
2022-10-15T09:54:02.660Z,52.36
2022-10-15T09:56:47.925Z,51.50
2022-10-15T09:59:21.451Z,48.26
2022-10-15T10:02:14.327Z,49.76
2022-10-15T10:04:43.262Z,48.73
2022-10-15T10:07:32.277Z,49.30
2022-10-15T10:10:09.969Z,48.18
2022-10-15T10:12:48.602Z,46.97
2022-10-15T10:15:45.686Z,45.42
2022-10-15T10:18:32.545Z,48.09
2022-10-15T10:21:34.822Z,48.43
2022-10-15T10:24:08.649Z,46.66
2022-10-15T10:29:45.436Z,46.37
2022-10-15T10:32:35.247Z,44.30
2022-10-15T10:40:58.447Z,42.83
2022-10-15T10:43:38.219Z,43.17
2022-10-15T10:46:18.210Z,43.96
2022-10-15T10:48:53.028Z,46.94
2022-10-15T10:51:27.403Z,41.64
2022-10-15T10:54:14.738Z,42.69
2022-10-15T10:56:48.759Z,46.42
2022-10-15T10:59:26.424Z,46.32
2022-10-15T11:01:57.565Z,46.56
2022-10-15T11:04:34.924Z,46.34
2022-10-15T11:07:06.929Z,46.56
2022-10-15T11:09:55.435Z,47.76
2022-10-15T11:12:42.650Z,47.03
2022-10-15T11:15:23.353Z,50.07
2022-10-15T11:18:25.486Z,47.82
2022-10-15T11:21:30.289Z,49.28
2022-10-15T11:24:18.361Z,51.75
2022-10-15T11:27:09.768Z,50.52
2022-10-15T11:30:18.425Z,50.31
2022-10-15T11:33:06.736Z,52.00
2022-10-15T11:35:54.653Z,53.01
2022-10-15T11:38:33.422Z,50.91
2022-10-15T11:41:19.539Z,50.54
2022-10-15T11:44:11.087Z,51.01
2022-10-15T11:46:57.583Z,51.23
2022-10-15T11:49:31.360Z,51.06
2022-10-15T11:52:10.769Z,50.77
2022-10-15T11:55:00.995Z,50.48
2022-10-15T11:57:32.675Z,50.86
2022-10-15T12:00:32.968Z,49.60
2022-10-15T12:03:16.712Z,50.29
2022-10-15T12:05:51.201Z,50.71
2022-10-15T12:08:21.361Z,49.46
2022-10-15T12:10:55.552Z,49.85
2022-10-15T12:13:39.289Z,51.04
2022-10-15T12:16:18.072Z,52.75
2022-10-15T12:19:13.929Z,53.20
2022-10-15T12:21:54.533Z,53.70
2022-10-15T12:24:51.726Z,54.07
2022-10-15T12:27:33.803Z,53.76
2022-10-15T12:30:07.870Z,52.88
2022-10-15T12:32:46.757Z,54.24
2022-10-15T12:35:24.621Z,54.37
2022-10-15T12:37:55.180Z,53.73
2022-10-15T12:40:29.685Z,53.70
2022-10-15T12:43:05.482Z,54.45
2022-10-15T12:45:40.758Z,54.25
2022-10-15T12:48:21.966Z,54.88
2022-10-15T12:50:50.889Z,58.37
2022-10-15T12:53:34.618Z,56.83
2022-10-15T12:56:15.171Z,57.28
2022-10-15T12:58:52.242Z,57.22
2022-10-15T13:01:23.898Z,59.44
2022-10-15T13:03:56.286Z,60.67
2022-10-15T13:06:30.449Z,62.10
2022-10-15T13:09:14.218Z,62.30
2022-10-15T13:11:54.655Z,62.43
2022-10-15T13:14:44.705Z,63.22
2022-10-15T13:17:21.772Z,61.42
2022-10-15T13:20:05.217Z,61.22
2022-10-15T13:22:38.160Z,63.17
2022-10-15T13:25:17.811Z,64.07
2022-10-15T13:27:53.855Z,63.47
2022-10-15T13:30:36.501Z,63.05
2022-10-15T13:33:09.029Z,60.95
2022-10-15T13:35:40.018Z,59.98
2022-10-15T13:38:10.392Z,61.63
2022-10-15T13:40:39.849Z,59.83
2022-10-15T13:43:25.929Z,60.31
2022-10-15T13:46:05.723Z,60.63
2022-10-15T13:48:38.718Z,61.43
2022-10-15T13:51:09.501Z,62.13
2022-10-15T13:53:43.238Z,63.23
2022-10-15T13:56:21.844Z,63.95
2022-10-15T13:58:57.246Z,64.47
2022-10-15T14:01:28.413Z,65.30
2022-10-15T14:03:59.866Z,65.72
2022-10-15T14:06:38.792Z,64.69
2022-10-15T14:09:19.656Z,65.54
2022-10-15T14:11:48.343Z,65.42
2022-10-15T14:14:37.729Z,66.36
2022-10-15T14:17:16.539Z,66.43
2022-10-15T14:20:22.161Z,65.48
2022-10-15T14:22:31.774Z,66.84
2022-10-15T14:25:00.855Z,67.88
2022-10-15T14:27:30.804Z,66.84
2022-10-15T14:30:16.106Z,67.48
2022-10-15T14:35:35.116Z,68.89
2022-10-15T14:38:14.221Z,67.68
2022-10-15T14:41:07.698Z,67.26
2022-10-15T14:43:38.321Z,66.35
2022-10-15T14:46:09.547Z,66.26
2022-10-15T14:48:40.771Z,66.13
2022-10-15T14:51:12.461Z,66.97
2022-10-15T14:53:44.051Z,68.64
2022-10-15T14:56:21.557Z,68.34
2022-10-15T14:59:05.587Z,69.63
2022-10-15T15:01:40.938Z,72.12
2022-10-15T15:04:40.863Z,74.33
2022-10-15T15:07:34.283Z,74.79
2022-10-15T15:10:28.059Z,74.86
2022-10-15T15:12:58.340Z,74.55
2022-10-15T15:15:27.850Z,75.83
2022-10-15T15:17:56.513Z,76.09
2022-10-15T15:20:25.917Z,77.65
2022-10-15T15:22:57.907Z,77.61
2022-10-15T15:25:35.528Z,76.70
2022-10-15T15:28:04.874Z,78.33
2022-10-15T15:30:35.301Z,80.15
2022-10-15T15:33:03.957Z,81.32
2022-10-15T15:35:38.461Z,84.10
2022-10-15T15:38:10.095Z,82.90
2022-10-15T15:40:39.323Z,87.15
2022-10-15T15:43:07.918Z,87.43
2022-10-15T15:45:36.586Z,91.39
2022-10-15T15:48:05.439Z,94.16
2022-10-15T15:50:34.124Z,99.08
2022-10-15T15:53:03.469Z,100.00
2022-10-15T15:55:32.139Z,100.00
2022-10-15T15:58:00.850Z,97.36
2022-10-15T16:00:29.411Z,99.10
2022-10-15T16:02:58.341Z,99.81
2022-10-15T16:05:27.002Z,100.00
2022-10-15T16:07:57.144Z,100.00
2022-10-15T16:10:25.914Z,100.00
2022-10-15T16:12:56.282Z,100.00
2022-10-15T16:15:24.934Z,100.00
2022-10-15T16:17:53.594Z,100.00
2022-10-15T16:20:22.975Z,100.00
2022-10-15T16:22:53.050Z,100.00
2022-10-15T16:25:27.789Z,100.00
2022-10-15T16:27:57.204Z,100.00
2022-10-15T16:30:25.930Z,100.00
2022-10-15T16:32:56.784Z,100.00
2022-10-15T16:35:25.838Z,100.00
2022-10-15T16:37:57.838Z,100.00
2022-10-15T16:40:28.704Z,100.00
2022-10-15T16:43:00.448Z,100.00
2022-10-15T16:45:29.149Z,100.00
2022-10-15T16:47:57.750Z,100.00
2022-10-15T16:50:26.362Z,100.00
2022-10-15T16:52:55.052Z,100.00
2022-10-15T16:58:31.238Z,100.00
2022-10-15T17:01:06.185Z,100.00
2022-10-15T17:03:39.245Z,100.00
2022-10-15T17:06:10.465Z,100.00
2022-10-15T17:09:26.167Z,100.00
2022-10-15T17:12:58.079Z,100.00
2022-10-15T17:15:27.047Z,100.00
2022-10-15T17:17:57.187Z,100.00
2022-10-15T17:20:25.863Z,100.00
2022-10-15T17:22:54.624Z,100.00
2022-10-15T17:25:23.247Z,100.00
2022-10-15T17:27:52.621Z,100.00
2022-10-15T17:30:21.320Z,100.00
2022-10-15T17:32:50.577Z,100.00
2022-10-15T17:35:21.294Z,100.00
2022-10-15T17:37:49.961Z,100.00
2022-10-15T17:40:18.778Z,100.00
2022-10-15T17:42:47.596Z,100.00
2022-10-15T17:45:16.447Z,100.00
2022-10-15T17:47:46.598Z,100.00
2022-10-15T17:50:15.755Z,100.00
2022-10-15T17:52:44.537Z,100.00
2022-10-15T17:55:13.308Z,100.00
2022-10-15T17:57:41.995Z,100.00
2022-10-15T18:00:12.029Z,100.00
2022-10-15T18:02:40.762Z,100.00
2022-10-15T18:05:12.438Z,100.00
2022-10-15T18:07:41.528Z,100.00
2022-10-15T18:10:14.216Z,100.00
2022-10-15T18:12:42.977Z,100.00
2022-10-15T18:15:11.930Z,100.00
2022-10-15T18:17:42.036Z,100.00
2022-10-15T18:22:55.329Z,100.00
2022-10-15T18:25:23.910Z,100.00
2022-10-15T18:27:52.642Z,100.00
2022-10-15T18:30:21.839Z,100.00
2022-10-15T18:32:52.221Z,100.00
2022-10-15T18:35:21.113Z,100.00
2022-10-15T18:37:50.841Z,100.00
2022-10-15T18:40:23.219Z,100.00
2022-10-15T18:42:51.862Z,100.00
2022-10-15T18:45:20.520Z,100.00
2022-10-15T18:47:49.218Z,100.00
2022-10-15T18:50:20.955Z,100.00
2022-10-15T18:52:50.052Z,100.00
2022-10-15T18:55:20.164Z,100.00
2022-10-15T18:57:50.414Z,100.00
2022-10-15T19:00:19.129Z,100.00
2022-10-15T19:02:47.651Z,100.00
2022-10-15T19:05:19.864Z,100.00
2022-10-15T19:07:48.546Z,100.00
2022-10-15T19:10:19.794Z,100.00
2022-10-15T19:12:47.647Z,100.00
2022-10-15T19:15:16.384Z,100.00
2022-10-15T19:17:49.591Z,100.00
2022-10-15T19:20:17.320Z,100.00
2022-10-15T19:22:46.859Z,100.00
2022-10-15T19:25:16.073Z,100.00
2022-10-15T19:27:48.745Z,100.00
2022-10-15T19:30:20.459Z,100.00
2022-10-15T19:32:49.236Z,100.00
2022-10-15T19:35:19.459Z,100.00
2022-10-15T19:37:48.198Z,100.00
2022-10-15T19:40:16.965Z,100.00
2022-10-15T19:42:50.053Z,100.00
2022-10-15T19:45:18.657Z,100.00
2022-10-15T19:47:48.695Z,100.00
2022-10-15T19:50:17.399Z,100.00
2022-10-15T19:52:46.487Z,100.00
2022-10-15T19:55:15.211Z,100.00
2022-10-15T19:57:48.618Z,100.00
2022-10-15T20:00:19.823Z,100.00
2022-10-15T20:02:49.984Z,100.00
2022-10-15T20:05:21.658Z,100.00
2022-10-15T22:03:37.829Z,100.00
2022-10-15T22:06:07.398Z,100.00
2022-10-15T22:08:39.070Z,100.00
2022-10-15T22:11:16.684Z,100.00
2022-10-15T22:13:47.831Z,100.00
2022-10-15T22:16:21.481Z,100.00
2022-10-15T22:18:50.304Z,100.00
2022-10-15T22:21:27.852Z,100.00
2022-10-15T22:24:02.235Z,100.00
2022-10-15T22:26:33.696Z,100.00
2022-10-15T22:29:03.883Z,100.00
2022-10-15T22:31:33.274Z,100.00
2022-10-15T22:34:02.443Z,100.00
2022-10-15T22:36:32.593Z,100.00
2022-10-15T22:39:04.954Z,100.00
2022-10-15T22:41:50.920Z,100.00
2022-10-15T22:50:30.646Z,100.00
2022-10-15T22:53:04.757Z,100.00
2022-10-15T22:55:33.478Z,100.00
2022-10-15T22:58:02.154Z,100.00
2022-10-15T23:00:33.458Z,100.00
2022-10-15T23:39:47.880Z,100.00
2022-10-15T23:42:16.778Z,100.00
2022-10-15T23:45:27.844Z,100.00
2022-10-15T23:47:59.798Z,100.00
2022-10-15T23:50:31.426Z,100.00
2022-10-15T23:53:00.130Z,100.00
2022-10-15T23:55:28.792Z,100.00
2022-10-15T23:57:59.869Z,100.00
